createdAt,value
2023-11-19T00:00:30.994Z,101405.91
2023-11-19T00:03:19.091Z,101404.36
2023-11-19T00:05:48.631Z,101406.79
2023-11-19T00:08:16.976Z,101401.30
2023-11-19T00:10:45.032Z,101406.64
2023-11-19T00:13:13.641Z,101409.88
2023-11-19T00:15:41.860Z,101409.41
2023-11-19T00:18:10.143Z,101406.45
2023-11-19T00:20:38.567Z,101407.23
2023-11-19T00:23:06.895Z,101408.08
2023-11-19T00:25:35.156Z,101410.63
2023-11-19T00:28:03.308Z,101410.38
2023-11-19T00:30:32.466Z,101405.88
2023-11-19T00:33:01.647Z,101412.63
2023-11-19T00:35:29.776Z,101410.29
2023-11-19T00:37:58.914Z,101417.95
2023-11-19T00:40:27.600Z,101419.27
2023-11-19T00:42:55.734Z,101420.53
2023-11-19T00:45:25.115Z,101420.08
2023-11-19T00:47:53.632Z,101417.75
2023-11-19T00:50:22.046Z,101420.84
2023-11-19T00:52:50.133Z,101418.34
2023-11-19T00:55:18.927Z,101427.45
2023-11-19T00:57:47.239Z,101426.70
2023-11-19T01:00:25.475Z,101427.38
2023-11-19T01:02:53.968Z,101434.06
2023-11-19T01:05:24.017Z,101433.82
2023-11-19T01:07:55.981Z,101436.39
2023-11-19T01:10:25.557Z,101440.52
2023-11-19T01:12:54.391Z,101442.63
2023-11-19T01:15:24.219Z,101450.26
2023-11-19T01:17:54.359Z,101451.34
2023-11-19T01:20:22.951Z,101455.33
2023-11-19T01:22:52.201Z,101458.39
2023-11-19T01:25:21.169Z,101464.27
2023-11-19T01:27:50.176Z,101461.64
2023-11-19T01:30:18.565Z,101465.31
2023-11-19T01:32:46.853Z,101463.23
2023-11-19T01:35:15.842Z,101461.17
2023-11-19T01:37:43.967Z,101463.67
2023-11-19T01:40:13.272Z,101460.58
2023-11-19T01:42:42.261Z,101457.65
2023-11-19T01:45:23.771Z,101459.67
2023-11-19T01:47:53.022Z,101455.48
2023-11-19T01:50:22.781Z,101455.59
2023-11-19T01:52:53.513Z,101454.53
2023-11-19T01:55:23.470Z,101451.93
2023-11-19T01:57:54.394Z,101451.59
2023-11-19T02:00:22.893Z,101451.41
2023-11-19T02:02:53.651Z,101453.94
2023-11-19T02:05:22.877Z,101455.67
2023-11-19T02:07:52.639Z,101452.58
2023-11-19T02:10:20.951Z,101452.86
2023-11-19T02:12:49.203Z,101454.95
2023-11-19T02:15:20.527Z,101456.77
2023-11-19T02:17:48.660Z,101457.75
2023-11-19T02:20:17.128Z,101465.96
2023-11-19T02:22:45.810Z,101465.70
2023-11-19T02:25:31.654Z,101465.11
2023-11-19T02:28:02.027Z,101465.15
2023-11-19T02:30:30.575Z,101471.19
2023-11-19T02:33:02.037Z,101466.73
2023-11-19T02:35:32.875Z,101469.52
2023-11-19T02:38:02.071Z,101471.72
2023-11-19T02:40:30.223Z,101470.69
2023-11-19T02:42:59.128Z,101471.52
2023-11-19T02:45:28.049Z,101466.11
2023-11-19T02:47:57.218Z,101469.44
2023-11-19T02:50:26.757Z,101467.32
2023-11-19T02:52:58.137Z,101469.55
2023-11-19T02:55:29.090Z,101469.55
2023-11-19T02:58:00.653Z,101461.33
2023-11-19T03:00:37.223Z,101458.05
2023-11-19T03:03:19.939Z,101460.61
2023-11-19T03:05:48.794Z,101462.66
2023-11-19T03:10:49.180Z,101467.01
2023-11-19T03:13:20.351Z,101467.21
2023-11-19T03:15:48.953Z,101467.77
2023-11-19T03:18:17.281Z,101473.56
2023-11-19T03:20:48.145Z,101480.54
2023-11-19T03:23:16.306Z,101477.27
2023-11-19T03:25:44.956Z,101478.02
2023-11-19T03:28:13.484Z,101471.18
2023-11-19T03:30:41.690Z,101476.72
2023-11-19T03:33:10.267Z,101472.35
2023-11-19T03:35:38.483Z,101476.20
2023-11-19T03:38:06.566Z,101480.02
2023-11-19T03:40:34.825Z,101487.02
2023-11-19T03:43:05.639Z,101482.20
2023-11-19T03:45:33.982Z,101482.80
2023-11-19T03:48:02.557Z,101487.00
2023-11-19T03:50:31.060Z,101484.90
2023-11-19T03:52:59.684Z,101484.82
2023-11-19T03:55:27.837Z,101494.26
2023-11-19T03:57:55.994Z,101494.70
2023-11-19T04:00:24.840Z,101495.27
2023-11-19T04:02:52.894Z,101496.44
2023-11-19T04:05:21.420Z,101499.55
2023-11-19T04:07:49.715Z,101514.04
2023-11-19T04:10:18.578Z,101519.52
2023-11-19T04:12:47.362Z,101513.98
2023-11-19T04:15:15.882Z,101520.03
2023-11-19T04:17:44.283Z,101519.14
2023-11-19T04:20:15.590Z,101515.73
2023-11-19T04:22:44.099Z,101510.86
2023-11-19T04:25:12.473Z,101509.81
2023-11-19T04:27:41.059Z,101504.53
2023-11-19T04:30:12.487Z,101498.34
2023-11-19T04:32:41.147Z,101502.97
2023-11-19T04:35:10.667Z,101496.25
2023-11-19T04:37:40.370Z,101495.73
2023-11-19T04:40:11.074Z,101487.92
2023-11-19T04:42:42.387Z,101480.98
2023-11-19T04:45:11.804Z,101483.41
2023-11-19T04:47:40.449Z,101476.61
2023-11-19T04:50:12.578Z,101474.06
2023-11-19T04:52:41.723Z,101465.55
2023-11-19T04:55:12.909Z,101460.55
2023-11-19T04:57:41.742Z,101458.18
2023-11-19T05:02:43.614Z,101451.30
2023-11-19T05:05:13.030Z,101449.67
2023-11-19T05:07:41.381Z,101446.88
2023-11-19T05:10:10.239Z,101445.15
2023-11-19T05:12:38.317Z,101444.13
2023-11-19T05:15:07.215Z,101444.54
2023-11-19T05:17:35.425Z,101447.27
2023-11-19T05:20:04.775Z,101446.01
2023-11-19T05:22:33.606Z,101441.95
2023-11-19T05:25:01.756Z,101439.95
2023-11-19T05:27:30.044Z,101441.81
2023-11-19T05:29:58.132Z,101443.73
2023-11-19T05:32:26.130Z,101442.11
2023-11-19T05:34:54.201Z,101441.69
2023-11-19T05:37:22.461Z,101438.18
2023-11-19T05:39:50.743Z,101440.51
2023-11-19T05:42:18.927Z,101445.64
2023-11-19T05:44:47.493Z,101455.13
2023-11-19T05:47:15.776Z,101454.02
2023-11-19T05:49:45.007Z,101446.24
2023-11-19T05:52:13.587Z,101440.70
2023-11-19T05:54:43.128Z,101444.79
2023-11-19T05:57:11.761Z,101444.13
2023-11-19T05:59:40.006Z,101444.16
2023-11-19T06:02:08.076Z,101444.45
2023-11-19T06:04:36.649Z,101440.20
2023-11-19T06:07:06.403Z,101438.61
2023-11-19T06:09:35.204Z,101450.35
2023-11-19T06:12:03.818Z,101457.57
2023-11-19T06:14:32.031Z,101458.27
2023-11-19T06:17:01.128Z,101456.27
2023-11-19T06:19:31.203Z,101451.56
2023-11-19T06:21:59.751Z,101451.13
2023-11-19T06:24:28.149Z,101458.08
2023-11-19T06:26:56.522Z,101460.39
2023-11-19T06:29:24.600Z,101472.29
2023-11-19T06:31:52.771Z,101478.85
2023-11-19T06:34:20.911Z,101476.60
2023-11-19T06:36:49.835Z,101472.84
2023-11-19T06:39:19.471Z,101472.77
2023-11-19T06:41:48.742Z,101478.83
2023-11-19T06:44:17.011Z,101476.63
2023-11-19T06:46:45.612Z,101472.33
2023-11-19T06:49:13.771Z,101470.38
2023-11-19T06:51:45.451Z,101472.66
2023-11-19T06:54:13.568Z,101472.42
2023-11-19T06:56:43.025Z,101470.64
2023-11-19T06:59:11.425Z,101464.03
2023-11-19T07:01:40.040Z,101457.20
2023-11-19T07:04:11.288Z,101461.13
2023-11-19T07:06:42.266Z,101457.46
2023-11-19T07:09:11.481Z,101450.92
2023-11-19T07:11:41.518Z,101455.62
2023-11-19T07:14:10.153Z,101452.11
2023-11-19T07:16:40.071Z,101448.64
2023-11-19T07:19:08.738Z,101448.04
2023-11-19T07:21:40.863Z,101448.06
2023-11-19T07:24:09.304Z,101436.70
2023-11-19T07:26:41.717Z,101434.66
2023-11-19T07:29:09.774Z,101436.46
2023-11-19T07:31:38.482Z,101435.90
2023-11-19T07:34:07.773Z,101437.68
2023-11-19T07:36:37.257Z,101449.58
2023-11-19T07:39:06.264Z,101446.86
2023-11-19T07:41:34.768Z,101446.62
2023-11-19T07:44:07.976Z,101437.35
2023-11-19T07:46:36.690Z,101437.00
2023-11-19T07:49:05.237Z,101438.61
2023-11-19T07:51:33.679Z,101440.36
2023-11-19T07:54:02.050Z,101444.32
2023-11-19T07:56:30.263Z,101440.66
2023-11-19T07:58:58.753Z,101449.48
2023-11-19T08:01:27.115Z,101451.34
2023-11-19T08:06:26.600Z,101457.35
2023-11-19T08:08:54.963Z,101466.10
2023-11-19T08:11:23.054Z,101464.45
2023-11-19T08:13:51.161Z,101466.10
2023-11-19T08:16:19.217Z,101470.06
2023-11-19T08:18:47.751Z,101475.05
2023-11-19T08:21:16.261Z,101482.15
2023-11-19T08:23:44.463Z,101480.86
2023-11-19T08:26:12.696Z,101484.77
2023-11-19T08:28:41.005Z,101483.60
2023-11-19T08:31:09.142Z,101487.71
2023-11-19T08:33:37.444Z,101495.53
2023-11-19T08:36:07.674Z,101494.48
2023-11-19T08:38:35.882Z,101488.31
2023-11-19T08:41:04.594Z,101480.10
2023-11-19T08:43:33.100Z,101471.78
2023-11-19T08:46:01.629Z,101468.38
2023-11-19T08:48:30.132Z,101463.49
2023-11-19T08:50:58.410Z,101456.17
2023-11-19T08:53:27.333Z,101455.35
2023-11-19T08:55:55.633Z,101449.96
2023-11-19T08:58:23.945Z,101438.33
2023-11-19T09:00:52.291Z,101424.84
2023-11-19T09:03:21.713Z,101420.58
2023-11-19T09:05:50.665Z,101417.71
2023-11-19T09:08:19.074Z,101412.70
2023-11-19T09:10:47.336Z,101406.95
2023-11-19T09:13:16.042Z,101405.36
2023-11-19T09:15:44.411Z,101394.44
2023-11-19T09:18:12.909Z,101398.98
2023-11-19T09:20:41.435Z,101402.48
2023-11-19T09:23:10.468Z,101403.99
2023-11-19T09:28:10.267Z,101396.73
2023-11-19T09:30:39.236Z,101395.22
2023-11-19T09:33:07.473Z,101394.82
2023-11-19T09:35:36.002Z,101386.52
2023-11-19T09:38:06.697Z,101378.04
2023-11-19T09:40:35.056Z,101379.20
2023-11-19T09:43:03.355Z,101377.73
2023-11-19T09:45:34.006Z,101369.27
2023-11-19T09:48:03.581Z,101354.70
2023-11-19T09:50:32.583Z,101343.77
2023-11-19T09:53:01.121Z,101337.02
2023-11-19T09:55:29.181Z,101333.42
2023-11-19T09:58:01.587Z,101328.62
2023-11-19T10:00:31.121Z,101329.17
2023-11-19T10:03:01.569Z,101328.41
2023-11-19T10:05:30.170Z,101323.84
2023-11-19T10:07:59.515Z,101315.98
2023-11-19T10:10:27.797Z,101314.57
2023-11-19T10:12:57.974Z,101314.70
2023-11-19T10:15:28.640Z,101314.88
2023-11-19T10:17:58.184Z,101313.69
2023-11-19T10:20:26.723Z,101304.33
2023-11-19T10:22:56.268Z,101309.06
2023-11-19T10:25:29.492Z,101310.58
2023-11-19T10:27:58.490Z,101313.23
2023-11-19T10:30:30.975Z,101312.11
2023-11-19T10:33:09.669Z,101305.77
2023-11-19T10:38:27.571Z,101305.02
2023-11-19T10:40:56.148Z,101305.73
2023-11-19T10:43:25.043Z,101306.69
2023-11-19T10:45:53.793Z,101301.09
2023-11-19T10:48:25.047Z,101298.90
2023-11-19T10:50:58.567Z,101296.83
2023-11-19T10:53:29.200Z,101291.88
2023-11-19T10:56:01.145Z,101289.61
2023-11-19T10:58:33.583Z,101289.64
2023-11-19T11:01:13.027Z,101284.44
2023-11-19T11:03:42.684Z,101285.61
2023-11-19T11:06:12.875Z,101288.69
2023-11-19T11:08:42.015Z,101287.73
2023-11-19T11:11:14.460Z,101290.94
2023-11-19T11:13:44.351Z,101293.06
2023-11-19T11:16:14.073Z,101293.59
2023-11-19T11:18:42.765Z,101293.30
2023-11-19T11:21:19.672Z,101290.23
2023-11-19T11:24:24.677Z,101285.83
2023-11-19T11:26:58.655Z,101282.59
2023-11-19T11:29:42.547Z,101278.89
2023-11-19T11:32:25.908Z,101276.18
2023-11-19T11:34:57.229Z,101272.23
2023-11-19T11:37:32.165Z,101272.27
2023-11-19T11:40:02.428Z,101276.83
2023-11-19T11:42:31.201Z,101274.17
2023-11-19T11:45:10.708Z,101277.84
2023-11-19T11:47:45.951Z,101278.90
2023-11-19T11:50:17.588Z,101284.54
2023-11-19T11:52:58.141Z,101280.89
2023-11-19T11:55:39.675Z,101283.33
2023-11-19T11:58:08.155Z,101282.21
2023-11-19T12:00:41.438Z,101284.93
2023-11-19T12:03:10.138Z,101287.36
2023-11-19T12:05:48.576Z,101290.14
2023-11-19T12:08:26.765Z,101287.41
2023-11-19T12:11:00.695Z,101284.43
2023-11-19T12:13:54.396Z,101278.45
2023-11-19T12:16:22.778Z,101275.92
2023-11-19T12:18:51.466Z,101272.73
2023-11-19T12:21:32.699Z,101261.92
2023-11-19T12:24:09.057Z,101253.50
2023-11-19T12:26:41.660Z,101250.30
2023-11-19T12:29:10.663Z,101248.05
2023-11-19T12:31:39.558Z,101242.50
2023-11-19T12:34:13.518Z,101244.95
2023-11-19T12:36:42.954Z,101241.98
2023-11-19T12:39:14.211Z,101232.55
2023-11-19T12:41:53.289Z,101236.90
2023-11-19T12:44:22.439Z,101233.18
2023-11-19T12:47:04.428Z,101238.14
2023-11-19T12:49:33.622Z,101234.89
2023-11-19T12:52:02.755Z,101232.78
2023-11-19T12:54:37.867Z,101239.14
2023-11-19T12:57:06.883Z,101237.88
2023-11-19T12:59:36.019Z,101237.11
2023-11-19T13:02:07.171Z,101238.79
2023-11-19T13:04:36.104Z,101242.92
2023-11-19T13:07:06.094Z,101243.92
2023-11-19T13:09:35.324Z,101244.86
2023-11-19T13:12:17.881Z,101245.16
2023-11-19T13:14:47.724Z,101238.05
2023-11-19T13:17:16.630Z,101230.45
2023-11-19T13:19:44.966Z,101227.67
2023-11-19T13:22:13.057Z,101224.20
2023-11-19T13:24:41.707Z,101217.60
2023-11-19T13:27:10.318Z,101212.73
2023-11-19T13:29:38.366Z,101214.21
2023-11-19T13:32:07.144Z,101214.27
2023-11-19T13:34:35.441Z,101217.33
2023-11-19T13:37:04.063Z,101224.48
2023-11-19T13:39:32.608Z,101225.83
2023-11-19T13:44:33.585Z,101223.45
2023-11-19T13:47:02.133Z,101216.78
2023-11-19T13:49:30.267Z,101224.65
2023-11-19T13:51:58.643Z,101222.02
2023-11-19T13:54:27.147Z,101223.40
2023-11-19T13:56:59.543Z,101228.58
2023-11-19T13:59:28.347Z,101219.04
2023-11-19T14:01:56.691Z,101220.33
2023-11-19T14:04:25.545Z,101224.80
2023-11-19T14:06:56.581Z,101218.37
2023-11-19T14:09:25.297Z,101215.31
2023-11-19T14:11:53.397Z,101207.29
2023-11-19T14:14:21.559Z,101202.60
2023-11-19T14:16:49.723Z,101206.38
2023-11-19T14:19:17.973Z,101192.06
2023-11-19T14:21:46.528Z,101190.33
2023-11-19T14:24:14.831Z,101186.89
2023-11-19T14:26:42.890Z,101177.01
2023-11-19T14:29:11.253Z,101172.17
2023-11-19T14:31:41.270Z,101164.09
2023-11-19T14:34:09.853Z,101160.15
2023-11-19T14:36:38.306Z,101155.52
2023-11-19T14:39:08.402Z,101149.31
2023-11-19T14:41:36.456Z,101149.33
2023-11-19T14:44:06.563Z,101147.02
2023-11-19T14:46:35.030Z,101147.19
2023-11-19T14:49:05.218Z,101143.11
2023-11-19T14:51:33.481Z,101135.05
2023-11-19T14:54:01.899Z,101131.91
2023-11-19T14:56:30.267Z,101126.38
2023-11-19T14:58:59.886Z,101120.52
2023-11-19T15:01:29.968Z,101119.73
2023-11-19T15:04:01.722Z,101120.90
2023-11-19T15:06:33.447Z,101116.85
2023-11-19T15:09:01.980Z,101113.80
2023-11-19T15:11:30.589Z,101109.23
2023-11-19T15:13:59.001Z,101108.80
2023-11-19T15:16:32.595Z,101108.89
2023-11-19T15:19:01.303Z,101109.71
2023-11-19T15:21:30.388Z,101108.41
2023-11-19T15:23:58.740Z,101104.67
2023-11-19T15:26:26.968Z,101106.26
2023-11-19T15:28:57.444Z,101104.17
2023-11-19T15:31:25.895Z,101097.60
2023-11-19T15:33:54.306Z,101096.09
2023-11-19T15:36:22.833Z,101098.79
2023-11-19T15:38:54.195Z,101104.34
2023-11-19T15:41:22.983Z,101101.51
2023-11-19T15:43:51.324Z,101101.92
2023-11-19T15:46:19.937Z,101100.67
2023-11-19T15:48:48.638Z,101097.69
2023-11-19T15:51:18.131Z,101100.77
2023-11-19T15:53:47.550Z,101101.10
2023-11-19T15:56:15.996Z,101097.65
2023-11-19T15:58:44.546Z,101089.95
2023-11-19T16:01:13.497Z,101078.72
2023-11-19T16:06:15.637Z,101071.21
2023-11-19T16:08:44.116Z,101075.45
2023-11-19T16:11:14.401Z,101077.36
2023-11-19T16:13:43.159Z,101069.30
2023-11-19T16:16:11.919Z,101071.86
2023-11-19T16:18:40.341Z,101068.01
2023-11-19T16:21:09.528Z,101064.45
2023-11-19T16:23:37.925Z,101065.96
2023-11-19T16:26:06.829Z,101062.23
2023-11-19T16:28:36.306Z,101057.30
2023-11-19T16:31:05.500Z,101055.71
2023-11-19T16:33:36.244Z,101052.69
2023-11-19T16:36:05.570Z,101053.52
2023-11-19T16:38:34.708Z,101055.21
2023-11-19T16:41:05.426Z,101058.36
2023-11-19T16:43:33.690Z,101059.38
2023-11-19T16:46:01.968Z,101053.91
2023-11-19T16:48:32.936Z,101056.74
2023-11-19T16:51:04.904Z,101052.14
2023-11-19T16:53:33.471Z,101045.77
2023-11-19T16:56:01.917Z,101040.84
2023-11-19T16:58:30.413Z,101043.45
2023-11-19T17:00:58.981Z,101045.89
2023-11-19T17:03:30.179Z,101047.30
2023-11-19T17:05:58.430Z,101053.73
2023-11-19T17:08:27.286Z,101052.89
2023-11-19T17:10:55.851Z,101049.44
2023-11-19T17:13:24.399Z,101046.56
2023-11-19T17:15:53.012Z,101048.83
2023-11-19T17:18:21.421Z,101043.16
2023-11-19T17:20:50.686Z,101044.29
2023-11-19T17:23:18.857Z,101045.41
2023-11-19T17:25:47.147Z,101034.34
2023-11-19T17:28:15.485Z,101033.38
2023-11-19T17:30:43.586Z,101033.27
2023-11-19T17:33:12.104Z,101034.91
2023-11-19T17:35:41.366Z,101029.98
2023-11-19T17:38:26.904Z,101037.38
2023-11-19T17:40:59.045Z,101040.70
2023-11-19T17:43:27.413Z,101041.02
2023-11-19T17:46:01.071Z,101043.12
2023-11-19T17:48:30.036Z,101036.95
2023-11-19T17:50:58.857Z,101037.49
2023-11-19T17:53:27.207Z,101034.02
2023-11-19T17:55:56.688Z,101031.63
2023-11-19T17:58:25.090Z,101023.73
2023-11-19T18:00:53.202Z,101020.96
2023-11-19T18:03:21.522Z,101019.80
2023-11-19T18:05:50.452Z,101013.37
2023-11-19T18:08:19.541Z,101012.06
2023-11-19T18:10:48.289Z,101012.02
2023-11-19T18:13:17.778Z,101006.14
2023-11-19T18:15:45.910Z,101000.30
2023-11-19T18:18:14.327Z,100994.09
2023-11-19T18:20:42.923Z,100989.63
2023-11-19T18:23:11.585Z,100992.42
2023-11-19T18:25:39.954Z,100988.79
2023-11-19T18:28:08.640Z,100995.87
2023-11-19T18:30:36.858Z,100995.28
2023-11-19T18:33:05.393Z,100996.44
2023-11-19T18:35:33.669Z,101000.61
2023-11-19T18:38:01.777Z,101004.44
2023-11-19T18:40:30.096Z,101004.94
2023-11-19T18:42:59.340Z,101001.46
2023-11-19T18:45:29.796Z,101005.13
2023-11-19T18:47:58.189Z,100995.95
2023-11-19T18:50:27.479Z,100996.13
2023-11-19T18:52:55.784Z,100997.10
2023-11-19T18:55:24.059Z,101002.59
2023-11-19T18:57:52.292Z,100998.31
2023-11-19T19:00:23.325Z,100995.17
2023-11-19T19:05:23.451Z,100991.17
2023-11-19T19:07:56.348Z,100996.64
2023-11-19T19:10:25.423Z,101005.13
2023-11-19T19:12:55.309Z,101002.89
2023-11-19T19:15:26.859Z,100995.52
2023-11-19T19:17:55.487Z,101006.13
2023-11-19T19:20:24.794Z,101018.02
2023-11-19T19:22:53.178Z,101012.26
2023-11-19T19:25:21.279Z,101015.73
2023-11-19T19:27:57.032Z,101009.23
2023-11-19T19:30:38.085Z,100998.12
2023-11-19T19:33:06.967Z,100990.69
2023-11-19T19:35:35.861Z,100993.15
2023-11-19T19:38:04.441Z,100986.94
2023-11-19T19:40:32.850Z,100986.41
2023-11-19T19:43:01.203Z,100989.24
2023-11-19T19:45:31.003Z,100986.64
2023-11-19T19:48:00.353Z,100996.77
2023-11-19T19:50:29.441Z,101006.34
2023-11-19T19:52:57.931Z,101003.45
2023-11-19T19:55:26.503Z,101005.73
2023-11-19T19:57:54.926Z,101000.94
2023-11-19T20:00:24.254Z,100994.36
2023-11-19T20:02:52.880Z,100991.42
2023-11-19T20:05:21.597Z,100990.22
2023-11-19T20:07:52.009Z,100994.04
2023-11-19T20:10:21.154Z,100998.65
2023-11-19T20:12:49.617Z,100994.52
2023-11-19T20:15:21.675Z,100987.83
2023-11-19T20:17:52.158Z,100986.00
2023-11-19T20:20:20.681Z,100984.49
2023-11-19T20:22:48.949Z,100982.27
2023-11-19T20:25:18.123Z,100977.39
2023-11-19T20:27:46.572Z,100975.52
2023-11-19T20:30:15.848Z,100964.56
2023-11-19T20:32:44.122Z,100962.45
2023-11-19T20:35:15.952Z,100956.50
2023-11-19T20:37:44.254Z,100955.07
2023-11-19T20:40:13.313Z,100960.48
2023-11-19T20:42:41.636Z,100955.77
2023-11-19T20:45:10.548Z,100951.52
2023-11-19T20:47:43.150Z,100948.11
2023-11-19T20:50:11.676Z,100941.52
2023-11-19T20:52:39.834Z,100937.09
2023-11-19T20:55:10.391Z,100930.88
2023-11-19T20:57:38.811Z,100929.38
2023-11-19T21:00:08.397Z,100924.71
2023-11-19T21:02:36.963Z,100921.27
2023-11-19T21:05:06.558Z,100927.42
2023-11-19T21:07:34.864Z,100928.93
2023-11-19T21:10:04.209Z,100930.75
2023-11-19T21:12:32.353Z,100928.20
2023-11-19T21:15:00.452Z,100923.64
2023-11-19T21:17:29.000Z,100923.26
2023-11-19T21:19:57.255Z,100924.34
2023-11-19T21:22:25.778Z,100918.73
2023-11-19T21:24:54.410Z,100918.78
2023-11-19T21:27:23.526Z,100919.34
2023-11-19T21:29:51.623Z,100919.74
2023-11-19T21:32:19.895Z,100925.42
2023-11-19T21:34:48.713Z,100928.95
2023-11-19T21:37:17.631Z,100932.41
2023-11-19T21:39:45.677Z,100936.21
2023-11-19T21:42:13.985Z,100932.27
2023-11-19T21:44:42.681Z,100933.27
2023-11-19T21:47:11.571Z,100936.38
2023-11-19T21:49:42.043Z,100932.83
2023-11-19T21:52:10.681Z,100935.79
2023-11-19T21:54:38.886Z,100940.86
2023-11-19T21:57:07.781Z,100942.71
2023-11-19T21:59:35.999Z,100941.56
2023-11-19T22:02:04.196Z,100939.21
2023-11-19T22:04:35.543Z,100932.70
2023-11-19T22:07:04.212Z,100930.17
2023-11-19T22:09:32.771Z,100931.67
2023-11-19T22:12:01.144Z,100940.40
2023-11-19T22:14:30.202Z,100937.78
2023-11-19T22:16:58.574Z,100933.59
2023-11-19T22:19:26.946Z,100935.57
2023-11-19T22:21:55.081Z,100934.10
2023-11-19T22:24:23.428Z,100931.54
2023-11-19T22:26:51.855Z,100934.36
2023-11-19T22:29:19.976Z,100932.63
2023-11-19T22:31:48.331Z,100935.27
2023-11-19T22:34:16.445Z,100930.97
2023-11-19T22:36:45.680Z,100924.36
2023-11-19T22:39:13.723Z,100921.59
2023-11-19T22:41:41.850Z,100919.16
2023-11-19T22:44:10.529Z,100920.34
2023-11-19T22:46:39.512Z,100918.05
2023-11-19T22:49:07.984Z,100918.63
2023-11-19T22:51:36.978Z,100914.71
2023-11-19T22:54:05.686Z,100911.88
2023-11-19T22:56:33.928Z,100906.94
2023-11-19T22:59:02.430Z,100899.98
2023-11-19T23:01:33.422Z,100899.38
2023-11-19T23:04:01.722Z,100899.05
2023-11-19T23:06:30.172Z,100898.13
2023-11-19T23:08:58.723Z,100898.27
2023-11-19T23:11:26.770Z,100885.09
2023-11-19T23:13:54.861Z,100883.74
2023-11-19T23:16:24.655Z,100889.06
2023-11-19T23:18:53.370Z,100889.23
2023-11-19T23:21:21.555Z,100890.45
2023-11-19T23:23:49.776Z,100890.64
2023-11-19T23:26:17.823Z,100885.02
2023-11-19T23:28:48.667Z,100890.89
2023-11-19T23:31:17.551Z,100887.45
2023-11-19T23:33:46.442Z,100886.41
2023-11-19T23:36:14.929Z,100889.31
2023-11-19T23:38:43.236Z,100882.45
2023-11-19T23:41:11.550Z,100885.97
2023-11-19T23:43:40.181Z,100879.33
2023-11-19T23:46:09.998Z,100881.39
2023-11-19T23:48:58.755Z,100885.40
2023-11-19T23:51:27.942Z,100887.08
2023-11-19T23:53:57.425Z,100882.52
2023-11-19T23:56:25.620Z,100886.02
2023-11-19T23:58:55.078Z,100889.21
